Time;durP1;ratioP1;P1;durP2;ratioP2;P2;SDS_P1;SDS_P2;PMS_P1;PMS_P2;Temp;Humidity;BMP_temperature;BMP_pressure;BME280_temperature;BME280_humidity;BME280_pressure;Samples;Min_cycle;Max_cycle;Signal;HPM_P1;HPM_P2
2024/01/15 00:02:14;;;;;;;54.78;28.20;;;;;;;1.30;100.00;100053.19;5036658;28;20029;-73
2024/01/15 00:04:40;;;;;;;59.47;28.98;;;;;;;1.29;100.00;100049.63;4991480;28;20475;-73
2024/01/15 00:07:08;;;;;;;57.83;28.60;;;;;;;1.28;100.00;100050.72;5003554;28;20026;-73
2024/01/15 00:09:34;;;;;;;54.03;28.15;;;;;;;1.30;100.00;100058.66;5000253;28;20026;-74
2024/01/15 00:12:00;;;;;;;54.88;27.92;;;;;;;1.28;100.00;100056.19;5037302;28;20034;-73
2024/01/15 00:14:25;;;;;;;64.13;31.17;;;;;;;1.31;100.00;100049.41;4992148;28;20033;-73
2024/01/15 00:16:51;;;;;;;58.33;29.23;;;;;;;1.32;100.00;100045.56;5003287;28;20597;-73
2024/01/15 00:19:17;;;;;;;57.08;28.55;;;;;;;1.31;100.00;100041.19;5037465;28;20069;-73
2024/01/15 00:21:43;;;;;;;60.83;29.23;;;;;;;1.32;100.00;100040.94;5035534;28;20414;-75
2024/01/15 00:24:08;;;;;;;54.10;28.77;;;;;;;1.32;100.00;100042.84;5037297;28;20026;-73
2024/01/15 00:26:33;;;;;;;53.85;28.30;;;;;;;1.33;100.00;100031.63;5036183;28;20033;-73
2024/01/15 00:28:59;;;;;;;57.05;28.75;;;;;;;1.31;100.00;100035.72;5035943;28;20036;-73
2024/01/15 00:31:25;;;;;;;54.17;27.67;;;;;;;1.31;100.00;100033.81;5052837;28;20484;-73
2024/01/15 00:33:50;;;;;;;53.25;27.98;;;;;;;1.30;100.00;100032.13;5035892;28;20040;-73
2024/01/15 00:36:16;;;;;;;53.53;27.67;;;;;;;1.30;100.00;100023.09;5035936;28;20028;-73
2024/01/15 00:38:42;;;;;;;54.22;28.08;;;;;;;1.31;100.00;100022.03;5035679;28;20030;-73
2024/01/15 00:41:07;;;;;;;51.80;26.30;;;;;;;1.32;100.00;100027.25;5052407;28;20035;-73
2024/01/15 00:43:33;;;;;;;56.05;27.73;;;;;;;1.32;100.00;100020.94;5036791;28;20021;-73
2024/01/15 00:46:02;;;;;;;54.10;28.00;;;;;;;1.31;100.00;100024.78;5052125;28;20033;-73
2024/01/15 00:48:27;;;;;;;51.67;26.38;;;;;;;1.32;100.00;100026.41;5033201;28;20113;-73
2024/01/15 00:50:54;;;;;;;53.05;27.23;;;;;;;1.29;100.00;100035.13;5025472;28;20040;-73
2024/01/15 00:53:22;;;;;;;49.92;26.13;;;;;;;1.29;100.00;100025.00;5039775;28;20030;-73
2024/01/15 00:55:48;;;;;;;53.17;27.60;;;;;;;1.33;100.00;100025.34;5036358;28;20036;-73
2024/01/15 00:58:13;;;;;;;54.15;27.35;;;;;;;1.32;100.00;100019.03;5018747;28;20033;-73
2024/01/15 01:00:38;;;;;;;52.05;27.02;;;;;;;1.31;100.00;100017.38;5015639;28;20057;-73
2024/01/15 01:03:04;;;;;;;56.47;28.88;;;;;;;1.30;100.00;100023.91;5011936;28;20100;-73
2024/01/15 01:05:29;;;;;;;52.30;27.25;;;;;;;1.32;100.00;100018.22;4995382;28;20033;-73
2024/01/15 01:07:55;;;;;;;56.40;28.88;;;;;;;1.31;100.00;100016.56;5027809;28;20033;-73
2024/01/15 01:10:20;;;;;;;51.03;26.38;;;;;;;1.33;100.00;100008.91;5036575;28;20033;-73
2024/01/15 01:12:46;;;;;;;54.90;27.73;;;;;;;1.33;100.00;100011.66;5034875;28;20087;-73
2024/01/15 01:15:11;;;;;;;52.42;26.83;;;;;;;1.32;100.00;100010.81;5033535;28;20402;-73
2024/01/15 01:17:37;;;;;;;53.40;27.33;;;;;;;1.31;100.00;100003.72;5042913;28;20029;-73
2024/01/15 01:20:04;;;;;;;50.80;26.42;;;;;;;1.31;100.00;100011.91;5018729;28;20042;-73
2024/01/15 01:22:30;;;;;;;49.95;26.02;;;;;;;1.32;100.00;100007.28;5015337;28;20096;-73
2024/01/15 01:24:55;;;;;;;53.25;27.73;;;;;;;1.32;100.00;99997.16;5015424;28;20037;-73
2024/01/15 01:27:21;;;;;;;51.72;26.30;;;;;;;1.33;100.00;99992.50;5034419;28;20105;-73
2024/01/15 01:29:47;;;;;;;50.60;27.40;;;;;;;1.35;100.00;99987.63;5034747;28;20108;-73
2024/01/15 01:32:12;;;;;;;50.45;26.75;;;;;;;1.34;100.00;99983.25;5036214;28;20041;-73
2024/01/15 01:34:42;;;;;;;52.50;28.08;;;;;;;1.33;100.00;99978.81;5034868;28;20546;-73
2024/01/15 01:37:07;;;;;;;50.40;27.45;;;;;;;1.34;100.00;99978.59;5018452;28;20037;-73
2024/01/15 01:39:33;;;;;;;53.97;26.88;;;;;;;1.33;100.00;99976.91;5035969;28;20030;-73
2024/01/15 01:41:58;;;;;;;53.25;28.08;;;;;;;1.35;100.00;99979.41;4992142;28;20025;-73
2024/01/15 01:44:24;;;;;;;50.40;26.58;;;;;;;1.34;100.00;99961.34;5051359;28;20037;-73
2024/01/15 01:46:50;;;;;;;51.85;27.52;;;;;;;1.35;100.00;99973.94;5018243;28;20390;-73
2024/01/15 01:49:15;;;;;;;52.60;27.70;;;;;;;1.33;100.00;99963.22;5034995;28;20032;-73
2024/01/15 01:51:41;;;;;;;53.95;27.17;;;;;;;1.33;100.00;99963.22;5044404;28;20414;-74
2024/01/15 01:54:12;;;;;;;52.03;27.40;;;;;;;1.34;100.00;99969.56;5032710;28;20040;-73
2024/01/15 01:56:37;;;;;;;52.60;27.70;;;;;;;1.36;100.00;99977.50;5018473;28;20053;-73
2024/01/15 01:59:03;;;;;;;50.05;26.27;;;;;;;1.33;100.00;99967.88;5017583;28;20030;-73
2024/01/15 02:01:30;;;;;;;58.65;28.75;;;;;;;1.34;100.00;99964.09;4998521;28;20025;-73
2024/01/15 02:03:56;;;;;;;54.35;28.15;;;;;;;1.33;100.00;99960.50;5033934;28;20103;-73
2024/01/15 02:06:23;;;;;;;53.42;27.73;;;;;;;1.35;100.00;99954.78;5034505;28;20040;-73
2024/01/15 02:08:48;;;;;;;49.15;26.02;;;;;;;1.34;100.00;99958.63;5014662;28;20033;-73
2024/01/15 02:11:14;;;;;;;55.13;27.40;;;;;;;1.34;100.00;99964.09;5027535;28;20036;-73
2024/01/15 02:13:39;;;;;;;53.22;27.92;;;;;;;1.35;100.00;99957.53;5034135;28;20039;-73
2024/01/15 02:16:05;;;;;;;51.65;28.23;;;;;;;1.35;100.00;99957.53;5034628;28;20389;-73
2024/01/15 02:18:42;;;;;;;56.40;27.52;;;;;;;1.37;100.00;99960.84;5035228;28;20740;-73
2024/01/15 02:21:08;;;;;;;57.92;29.70;;;;;;;1.37;100.00;99973.72;5017851;28;20449;-74
2024/01/15 02:23:33;;;;;;;53.08;28.23;;;;;;;1.37;100.00;99974.53;4985102;28;20021;-73
2024/01/15 02:25:59;;;;;;;58.55;30.20;;;;;;;1.35;100.00;99971.22;5017776;28;20033;-73
2024/01/15 02:28:24;;;;;;;56.90;29.75;;;;;;;1.36;100.00;99967.38;4984701;28;20120;-73
2024/01/15 02:30:50;;;;;;;54.28;28.75;;;;;;;1.39;100.00;99975.09;5017819;28;20079;-73
2024/01/15 02:33:15;;;;;;;53.72;28.98;;;;;;;1.39;100.00;99969.63;5017815;28;20029;-73
2024/01/15 02:35:41;;;;;;;52.80;27.33;;;;;;;1.38;100.00;99978.91;5033796;28;20029;-73
2024/01/15 02:38:06;;;;;;;52.78;28.73;;;;;;;1.37;100.00;99974.53;5016312;28;20040;-73
2024/01/15 02:40:32;;;;;;;56.33;27.63;;;;;;;1.37;100.00;99973.72;5038104;28;20033;-73
2024/01/15 02:42:57;;;;;;;53.03;28.35;;;;;;;1.37;100.00;99980.00;5005356;28;20033;-73
2024/01/15 02:45:23;;;;;;;55.83;29.08;;;;;;;1.39;100.00;99972.34;5003531;28;20026;-74
2024/01/15 02:47:49;;;;;;;59.78;28.80;;;;;;;1.39;100.00;99972.34;5001967;28;20033;-74
2024/01/15 02:50:14;;;;;;;54.45;29.08;;;;;;;1.38;100.00;99978.09;5023003;28;20033;-74
2024/01/15 02:52:41;;;;;;;57.38;29.88;;;;;;;1.39;100.00;99963.31;5040600;28;20091;-73
2024/01/15 02:55:06;;;;;;;54.63;28.35;;;;;;;1.39;100.00;99975.09;5005251;28;20030;-73
2024/01/15 02:57:32;;;;;;;52.78;27.45;;;;;;;1.39;100.00;99969.63;5021463;28;20116;-73
2024/01/15 02:59:57;;;;;;;58.33;28.38;;;;;;;1.40;100.00;99971.31;4993698;28;20092;-74
2024/01/15 03:02:23;;;;;;;58.05;29.77;;;;;;;1.40;100.00;99974.03;5021253;28;20022;-74
2024/01/15 03:04:48;;;;;;;58.47;29.88;;;;;;;1.40;100.00;99962.28;5037854;28;20029;-74
2024/01/15 03:07:14;;;;;;;60.70;28.33;;;;;;;1.40;100.00;99960.34;5037732;28;20025;-74
2024/01/15 03:09:39;;;;;;;56.85;29.40;;;;;;;1.41;100.00;99972.13;5021069;28;20026;-73
2024/01/15 03:12:05;;;;;;;60.63;30.60;;;;;;;1.40;100.00;99970.47;5055191;28;20108;-73
2024/01/15 03:14:31;;;;;;;57.60;30.23;;;;;;;1.39;100.00;99966.88;5019492;28;20041;-74
2024/01/15 03:16:56;;;;;;;56.95;29.75;;;;;;;1.41;100.00;99967.47;5042531;28;20030;-73
2024/01/15 03:19:22;;;;;;;56.55;28.70;;;;;;;1.40;100.00;99974.03;5038950;28;20390;-74
2024/01/15 03:21:47;;;;;;;57.53;28.33;;;;;;;1.41;100.00;99983.91;5070550;28;20058;-74
2024/01/15 03:24:13;;;;;;;54.78;28.77;;;;;;;1.41;100.00;99983.06;5037186;28;20021;-73
2024/01/15 03:26:38;;;;;;;57.75;29.83;;;;;;;1.38;100.00;99980.81;5037199;28;20040;-74
2024/01/15 03:29:04;;;;;;;55.78;29.15;;;;;;;1.41;100.00;99972.94;5037045;28;20030;-74
2024/01/15 03:31:29;;;;;;;55.30;29.73;;;;;;;1.40;100.00;99979.50;5037567;28;20033;-74
2024/01/15 03:33:55;;;;;;;59.70;30.38;;;;;;;1.41;100.00;99972.13;5037071;28;20034;-73
2024/01/15 03:36:20;;;;;;;54.85;29.08;;;;;;;1.40;100.00;99965.00;5037029;28;20501;-74
2024/01/15 03:38:46;;;;;;;51.85;28.25;;;;;;;1.40;100.00;99959.53;5038057;28;20030;-74
2024/01/15 03:41:12;;;;;;;54.67;28.58;;;;;;;1.42;100.00;99952.75;5038229;28;20064;-73
2024/01/15 03:43:37;;;;;;;56.85;29.58;;;;;;;1.41;100.00;99953.78;5036905;28;20029;-74
2024/01/15 03:46:04;;;;;;;56.63;29.52;;;;;;;1.42;100.00;99943.69;5038085;28;20464;-73
2024/01/15 03:48:30;;;;;;;54.97;28.17;;;;;;;1.42;100.00;99941.78;5036845;28;20115;-74
2024/01/15 03:50:55;;;;;;;59.15;29.73;;;;;;;1.44;100.00;99938.78;5059117;28;20037;-74
2024/01/15 03:53:21;;;;;;;54.47;27.83;;;;;;;1.44;100.00;99938.78;5040438;28;20030;-74
2024/01/15 03:55:47;;;;;;;54.58;28.25;;;;;;;1.46;100.00;99937.47;5020242;28;20034;-73
2024/01/15 03:58:14;;;;;;;55.33;28.80;;;;;;;1.43;100.00;99923.47;5020237;28;20041;-74
2024/01/15 04:00:40;;;;;;;52.05;27.85;;;;;;;1.47;100.00;99921.88;5036452;28;20712;-73
2024/01/15 04:03:05;;;;;;;54.97;29.42;;;;;;;1.45;100.00;99921.28;5036732;28;20029;-73
2024/01/15 04:05:31;;;;;;;53.08;28.27;;;;;;;1.47;100.00;99919.13;5037729;28;20034;-74
2024/01/15 04:07:56;;;;;;;58.92;29.98;;;;;;;1.47;100.00;99909.00;5036530;28;20033;-74
2024/01/15 04:10:22;;;;;;;54.90;29.15;;;;;;;1.45;100.00;99896.66;5037622;28;20087;-73
2024/01/15 04:12:47;;;;;;;59.13;30.63;;;;;;;1.48;100.00;99907.97;5038423;28;20029;-74
2024/01/15 04:15:13;;;;;;;57.60;30.42;;;;;;;1.48;100.00;99907.13;5037970;28;20022;-73
2024/01/15 04:17:38;;;;;;;57.28;27.92;;;;;;;1.46;100.00;99898.34;5036406;28;20574;-74
2024/01/15 04:20:04;;;;;;;54.50;29.13;;;;;;;1.48;100.00;99904.41;5036494;28;20500;-74
2024/01/15 04:22:30;;;;;;;67.40;31.70;;;;;;;1.46;100.00;99895.59;5037409;28;20049;-73
2024/01/15 04:24:55;;;;;;;56.40;29.77;;;;;;;1.49;100.00;99897.84;5036116;28;20036;-73
2024/01/15 04:27:21;;;;;;;58.42;28.75;;;;;;;1.48;100.00;99894.28;5036390;28;20071;-74
2024/01/15 04:29:46;;;;;;;58.60;30.77;;;;;;;1.45;100.00;99897.50;5037034;28;20060;-73
2024/01/15 04:32:12;;;;;;;55.75;29.27;;;;;;;1.45;100.00;99905.72;5037506;28;20030;-73
2024/01/15 04:34:37;;;;;;;55.95;28.75;;;;;;;1.46;100.00;99904.63;5037125;28;20038;-73
2024/01/15 04:37:03;;;;;;;59.85;29.58;;;;;;;1.47;100.00;99911.75;5035766;28;20692;-74
2024/01/15 04:39:28;;;;;;;56.33;28.85;;;;;;;1.44;100.00;99904.03;5037039;28;20560;-73
2024/01/15 04:41:54;;;;;;;56.47;29.25;;;;;;;1.48;100.00;99899.75;5037097;28;20159;-74
2024/01/15 04:44:19;;;;;;;55.13;28.55;;;;;;;1.48;100.00;99904.41;5035920;28;20037;-74
2024/01/15 04:46:45;;;;;;;55.22;29.30;;;;;;;1.49;100.00;99904.13;5037070;28;20026;-74
2024/01/15 04:49:11;;;;;;;57.08;29.90;;;;;;;1.49;100.00;99911.50;5035884;28;20051;-73
2024/01/15 04:51:36;;;;;;;53.85;28.38;;;;;;;1.49;100.00;99898.66;5046096;28;20040;-73
2024/01/15 04:54:02;;;;;;;58.67;29.15;;;;;;;1.50;100.00;99902.22;5036694;28;20040;-74
2024/01/15 04:56:27;;;;;;;56.58;28.85;;;;;;;1.48;100.00;99905.22;5034423;28;20060;-74
2024/01/15 04:58:53;;;;;;;55.67;29.95;;;;;;;1.48;100.00;99904.41;5036388;28;20091;-73
2024/01/15 05:01:18;;;;;;;58.25;28.45;;;;;;;1.49;100.00;99904.13;5036623;28;20372;-74
2024/01/15 05:03:44;;;;;;;52.75;27.70;;;;;;;1.50;100.00;99910.44;4997062;28;20026;-73
2024/01/15 05:06:09;;;;;;;53.83;28.05;;;;;;;1.51;100.00;99901.97;5019296;28;20111;-73
2024/01/15 05:08:34;;;;;;;56.88;28.33;;;;;;;1.52;100.00;99895.41;5035467;28;20033;-73
2024/01/15 05:11:00;;;;;;;58.53;28.98;;;;;;;1.52;100.00;99897.34;5036721;28;20029;-73
2024/01/15 05:13:26;;;;;;;53.80;27.60;;;;;;;1.50;100.00;99902.22;5034588;28;20079;-73
2024/01/15 05:15:51;;;;;;;55.80;29.17;;;;;;;1.51;100.00;99901.16;5042446;28;20106;-73
2024/01/15 05:18:17;;;;;;;56.25;27.45;;;;;;;1.50;100.00;99894.00;5037340;28;20029;-73
2024/01/15 05:20:42;;;;;;;55.08;27.42;;;;;;;1.53;100.00;99901.72;5035110;28;20044;-73
2024/01/15 05:23:08;;;;;;;53.28;26.60;;;;;;;1.52;100.00;99898.16;5036162;28;20103;-73
2024/01/15 05:25:33;;;;;;;53.35;28.02;;;;;;;1.51;100.00;99899.25;5035016;28;20057;-73
2024/01/15 05:27:59;;;;;;;52.30;27.58;;;;;;;1.55;100.00;99896.81;5034514;28;20026;-74
2024/01/15 05:30:24;;;;;;;52.58;26.15;;;;;;;1.53;100.00;99905.31;5036233;28;20072;-74
2024/01/15 05:32:50;;;;;;;54.72;26.33;;;;;;;1.52;100.00;99886.38;5034997;28;20525;-73
2024/01/15 05:35:15;;;;;;;53.20;26.40;;;;;;;1.53;100.00;99897.09;5034769;28;20029;-73
2024/01/15 05:37:45;;;;;;;49.05;25.20;;;;;;;1.54;100.00;99886.97;5036087;28;20101;-74
2024/01/15 05:40:13;;;;;;;52.50;26.25;;;;;;;1.55;100.00;99880.41;5018540;28;20039;-73
2024/01/15 05:42:40;;;;;;;54.63;26.65;;;;;;;1.53;100.00;99872.47;5035518;28;20087;-74
2024/01/15 05:45:05;;;;;;;49.38;26.05;;;;;;;1.54;100.00;99870.56;5018381;28;20029;-73
2024/01/15 05:47:31;;;;;;;49.83;25.13;;;;;;;1.52;100.00;99864.50;5035946;28;20079;-73
2024/01/15 05:49:57;;;;;;;54.20;27.58;;;;;;;1.53;100.00;99863.41;5023999;28;20033;-74
2024/01/15 05:52:22;;;;;;;49.20;25.77;;;;;;;1.53;100.00;99861.50;5040576;28;20033;-73
2024/01/15 05:54:49;;;;;;;53.15;26.73;;;;;;;1.53;100.00;99871.59;5033383;28;20072;-73
2024/01/15 05:57:14;;;;;;;50.97;26.17;;;;;;;1.52;100.00;99865.31;5034439;28;20045;-74
2024/01/15 05:59:40;;;;;;;50.63;26.90;;;;;;;1.53;100.00;99866.13;5035487;28;20497;-73
2024/01/15 06:02:05;;;;;;;51.13;27.05;;;;;;;1.53;100.00;99872.47;5034300;28;20041;-74
2024/01/15 06:04:31;;;;;;;50.35;26.35;;;;;;;1.51;100.00;99874.63;5034419;28;20025;-74
2024/01/15 06:06:56;;;;;;;54.38;26.30;;;;;;;1.52;100.00;99869.97;5034233;28;20037;-74
2024/01/15 06:09:22;;;;;;;49.20;24.92;;;;;;;1.54;100.00;99871.38;5035713;28;20029;-73
2024/01/15 06:11:47;;;;;;;50.08;25.20;;;;;;;1.54;100.00;99867.81;5034169;28;20033;-74
2024/01/15 06:14:12;;;;;;;51.80;25.25;;;;;;;1.54;100.00;99862.34;5034902;28;20029;-73
2024/01/15 06:16:38;;;;;;;46.10;25.10;;;;;;;1.53;100.00;99860.66;5044269;28;20030;-73
2024/01/15 06:19:03;;;;;;;48.50;25.73;;;;;;;1.53;100.00;99867.00;5018141;28;20040;-73
2024/01/15 06:21:29;;;;;;;47.53;24.48;;;;;;;1.51;100.00;99869.13;5034307;28;20058;-74
2024/01/15 06:23:56;;;;;;;51.17;26.60;;;;;;;1.54;100.00;99873.28;5035546;28;20712;-74
2024/01/15 06:26:22;;;;;;;48.35;24.60;;;;;;;1.52;100.00;99872.69;5018008;28;20112;-74
2024/01/15 06:28:48;;;;;;;45.65;23.58;;;;;;;1.53;100.00;99864.25;5034178;28;20026;-74
2024/01/15 06:31:13;;;;;;;47.55;24.15;;;;;;;1.56;100.00;99865.63;5034142;28;20567;-73
2024/01/15 06:33:39;;;;;;;52.50;25.55;;;;;;;1.53;100.00;99867.00;5001543;28;20034;-73
2024/01/15 06:36:05;;;;;;;47.38;24.55;;;;;;;1.54;100.00;99862.34;5017644;28;20079;-73
2024/01/15 06:38:31;;;;;;;46.95;23.90;;;;;;;1.51;100.00;99860.94;5035076;28;20068;-73
2024/01/15 06:40:56;;;;;;;48.38;25.02;;;;;;;1.51;100.00;99874.63;5035127;28;20033;-74
2024/01/15 06:43:22;;;;;;;46.83;23.48;;;;;;;1.52;100.00;99872.69;5000853;28;20130;-74
2024/01/15 06:45:47;;;;;;;48.33;23.83;;;;;;;1.52;100.00;99873.53;5033927;28;20478;-74
2024/01/15 06:48:14;;;;;;;44.80;23.10;;;;;;;1.52;100.00;99869.97;5034108;28;20033;-74
2024/01/15 06:50:40;;;;;;;46.10;23.45;;;;;;;1.52;100.00;99881.72;5041131;28;20437;-73
2024/01/15 06:53:05;;;;;;;46.08;23.42;;;;;;;1.52;100.00;99872.69;5035883;28;20025;-73
2024/01/15 06:55:31;;;;;;;46.63;23.55;;;;;;;1.50;100.00;99878.41;5043908;28;20506;-73
2024/01/15 06:57:56;;;;;;;42.97;22.55;;;;;;;1.52;100.00;99879.00;5015700;28;20084;-73
2024/01/15 07:00:22;;;;;;;42.13;22.13;;;;;;;1.51;100.00;99885.56;5034881;28;20040;-74
2024/01/15 07:02:47;;;;;;;49.10;23.67;;;;;;;1.51;100.00;99885.56;5034904;28;20025;-74
2024/01/15 07:05:13;;;;;;;42.88;22.83;;;;;;;1.53;100.00;99893.50;5035001;28;20041;-74
2024/01/15 07:07:38;;;;;;;46.58;22.48;;;;;;;1.52;100.00;99897.34;5034894;28;20470;-74
2024/01/15 07:10:05;;;;;;;42.63;21.73;;;;;;;1.51;100.00;99891.03;5017322;28;20032;-74
2024/01/15 07:12:30;;;;;;;45.08;22.77;;;;;;;1.54;100.00;99893.28;5033609;28;20040;-74
2024/01/15 07:14:56;;;;;;;45.63;22.73;;;;;;;1.54;100.00;99896.00;5034957;28;20550;-73
2024/01/15 07:17:22;;;;;;;43.00;21.77;;;;;;;1.55;100.00;99897.66;5033833;28;20034;-74
2024/01/15 07:19:47;;;;;;;43.75;22.42;;;;;;;1.56;100.00;99899.34;5034795;28;20026;-74
2024/01/15 07:22:14;;;;;;;42.83;22.02;;;;;;;1.58;100.00;99900.97;5033542;28;20104;-73
2024/01/15 07:24:40;;;;;;;41.20;21.17;;;;;;;1.55;100.00;99897.66;5034747;28;20021;-74
2024/01/15 07:27:05;;;;;;;42.25;21.48;;;;;;;1.58;100.00;99895.50;5036550;28;20037;-73
2024/01/15 07:29:33;;;;;;;42.83;21.42;;;;;;;1.58;100.00;99893.59;5020445;28;20030;-73
2024/01/15 07:31:58;;;;;;;38.72;20.20;;;;;;;1.57;100.00;99883.72;5038475;28;20033;-73
2024/01/15 07:34:24;;;;;;;41.75;21.42;;;;;;;1.60;100.00;99885.97;5036912;28;20030;-74
2024/01/15 07:36:49;;;;;;;43.90;20.33;;;;;;;1.61;100.00;99886.78;5020416;28;20029;-74
2024/01/15 07:39:14;;;;;;;42.92;21.45;;;;;;;1.60;100.00;99887.88;5038114;28;20095;-73
2024/01/15 07:41:40;;;;;;;42.15;21.35;;;;;;;1.60;100.00;99887.88;5037089;28;20034;-73
2024/01/15 07:44:05;;;;;;;41.15;20.92;;;;;;;1.60;100.00;99890.63;5019555;28;20030;-74
2024/01/15 07:46:31;;;;;;;38.95;20.38;;;;;;;1.58;100.00;99890.84;5020506;28;20033;-74
2024/01/15 07:48:57;;;;;;;43.28;21.65;;;;;;;1.61;100.00;99895.81;5037906;28;20030;-73
2024/01/15 07:51:26;;;;;;;45.08;21.45;;;;;;;1.62;100.00;99896.69;5045393;28;20036;-74
2024/01/15 07:53:53;;;;;;;41.15;19.73;;;;;;;1.62;100.00;99902.97;5037584;28;20057;-73
2024/01/15 07:56:18;;;;;;;40.80;21.33;;;;;;;1.61;100.00;99898.56;5035456;28;20046;-73
2024/01/15 07:58:44;;;;;;;38.65;20.42;;;;;;;1.61;100.00;99903.22;5035974;28;20518;-74
2024/01/15 08:01:10;;;;;;;39.97;20.33;;;;;;;1.63;100.00;99909.28;5037874;28;20037;-74
2024/01/15 08:03:35;;;;;;;39.35;20.45;;;;;;;1.63;100.00;99906.53;5037869;28;20081;-74
2024/01/15 08:06:01;;;;;;;37.85;19.48;;;;;;;1.66;100.00;99908.78;5036634;28;20025;-73
2024/01/15 08:08:26;;;;;;;39.75;19.42;;;;;;;1.66;100.00;99916.97;5020047;28;20038;-74
2024/01/15 08:10:52;;;;;;;38.03;19.73;;;;;;;1.64;100.00;99922.69;5036665;28;20037;-74
2024/01/15 08:13:18;;;;;;;40.65;19.88;;;;;;;1.65;100.00;99924.38;5035978;28;20026;-74
2024/01/15 08:15:43;;;;;;;52.22;27.63;;;;;;;1.70;100.00;99931.81;5020151;28;20037;-74
2024/01/15 08:18:12;;;;;;;61.28;27.90;;;;;;;1.70;100.00;99932.66;5036297;28;20037;-74
2024/01/15 08:20:38;;;;;;;52.70;25.33;;;;;;;1.71;100.00;99938.97;5036411;28;20083;-73
2024/01/15 08:23:04;;;;;;;59.75;27.17;;;;;;;1.73;100.00;99943.13;5003104;28;20049;-74
2024/01/15 08:25:29;;;;;;;67.05;28.95;;;;;;;1.74;100.00;99944.75;5016436;28;20096;-73
2024/01/15 08:27:56;;;;;;;62.78;28.95;;;;;;;1.74;100.00;99950.25;5034764;28;20030;-73
2024/01/15 08:30:24;;;;;;;45.47;23.48;;;;;;;1.72;100.00;99955.13;5037542;28;20511;-73
2024/01/15 08:32:50;;;;;;;61.03;27.20;;;;;;;1.76;100.00;99961.78;5037232;28;20116;-74
2024/01/15 08:35:15;;;;;;;55.45;26.63;;;;;;;1.79;100.00;99969.50;5036029;28;20033;-74
2024/01/15 08:37:41;;;;;;;51.20;25.10;;;;;;;1.81;100.00;99963.75;5036077;28;20025;-74
2024/01/15 08:40:07;;;;;;;54.78;26.42;;;;;;;1.82;100.00;99970.91;5052585;28;20029;-74
2024/01/15 08:42:32;;;;;;;54.92;26.63;;;;;;;1.84;100.00;99976.13;5036652;28;20037;-74
2024/01/15 08:44:58;;;;;;;59.72;26.20;;;;;;;1.84;100.00;99966.00;5046391;28;20025;-74
2024/01/15 08:47:25;;;;;;;53.47;25.67;;;;;;;1.85;100.00;99973.13;5038716;28;20095;-74
2024/01/15 08:49:56;;;;;;;54.80;25.35;;;;;;;1.86;100.00;99972.03;5047567;28;20029;-74
2024/01/15 08:52:22;;;;;;;55.67;27.58;;;;;;;1.89;100.00;99977.03;5039762;28;20486;-74
2024/01/15 08:54:55;;;;;;;69.82;29.92;;;;;;;1.90;100.00;99981.44;5052251;28;20060;-74
2024/01/15 08:57:22;;;;;;;60.88;27.77;;;;;;;1.92;100.00;99972.97;5035325;28;20025;-74
2024/01/15 08:59:48;;;;;;;61.47;27.08;;;;;;;1.94;100.00;99971.63;5035509;28;20098;-74
2024/01/15 09:02:15;;;;;;;64.07;28.50;;;;;;;1.96;100.00;99966.75;5038121;28;20056;-74
2024/01/15 09:04:45;;;;;;;53.00;26.13;;;;;;;1.98;100.00;99967.31;5035704;28;20497;-74
2024/01/15 09:07:11;;;;;;;54.25;26.48;;;;;;;1.99;100.00;99966.22;5035166;28;20139;-74
2024/01/15 09:09:36;;;;;;;61.65;28.83;;;;;;;2.01;100.00;99966.81;5036612;28;20402;-74
2024/01/15 09:12:02;;;;;;;64.15;29.92;;;;;;;2.01;100.00;99977.78;5015208;28;20033;-74
2024/01/15 09:14:29;;;;;;;74.50;31.67;;;;;;;2.01;100.00;99971.47;5027917;28;20418;-74
2024/01/15 09:16:54;;;;;;;76.40;31.70;;;;;;;2.00;100.00;99980.75;5018834;28;20030;-74
2024/01/15 09:19:19;;;;;;;70.63;29.88;;;;;;;1.99;100.00;99970.88;5014662;28;20064;-74
2024/01/15 09:21:45;;;;;;;71.07;31.35;;;;;;;1.96;100.00;99979.63;5029992;28;20060;-74
2024/01/15 09:24:11;;;;;;;72.18;30.83;;;;;;;1.98;100.00;99983.75;5033682;28;20406;-74
2024/01/15 09:26:36;;;;;;;75.63;31.90;;;;;;;1.97;100.00;99982.09;5035757;28;20037;-74
2024/01/15 09:29:02;;;;;;;72.22;32.28;;;;;;;1.99;100.00;99985.41;5012368;28;20034;-74
2024/01/15 09:31:28;;;;;;;67.45;29.92;;;;;;;2.03;100.00;99990.38;5034331;28;20037;-74
2024/01/15 09:33:56;;;;;;;79.30;34.20;;;;;;;2.05;100.00;99996.44;5036241;28;20032;-74
2024/01/15 09:36:22;;;;;;;85.82;36.17;;;;;;;2.06;100.00;99996.19;5034986;28;20450;-74
2024/01/15 09:38:48;;;;;;;87.20;34.10;;;;;;;2.11;100.00;100004.47;5034686;28;20035;-74
2024/01/15 09:41:13;;;;;;;83.88;34.22;;;;;;;2.13;100.00;100009.72;5067136;28;20021;-74
2024/01/15 09:43:39;;;;;;;80.45;33.92;;;;;;;2.19;100.00;100014.19;5051048;28;20540;-74
2024/01/15 09:46:04;;;;;;;81.72;33.10;;;;;;;2.26;100.00;100011.28;5018531;28;20021;-73
2024/01/15 09:48:30;;;;;;;78.10;32.28;;;;;;;2.31;100.00;100025.88;5034011;28;20056;-73
2024/01/15 09:50:58;;;;;;;75.13;31.77;;;;;;;2.40;100.00;100021.66;5042312;28;20029;-74
2024/01/15 09:53:24;;;;;;;74.43;32.03;;;;;;;2.47;100.00;100016.78;5037162;28;20034;-74
2024/01/15 09:55:50;;;;;;;74.85;31.88;;;;;;;2.57;100.00;100013.38;5014978;28;20030;-74
2024/01/15 09:58:15;;;;;;;78.05;33.70;;;;;;;2.68;100.00;100017.09;5005844;28;20028;-74
2024/01/15 10:00:41;;;;;;;71.47;31.95;;;;;;;2.81;100.00;100024.91;5028227;28;20038;-74
2024/01/15 10:03:07;;;;;;;67.65;31.42;;;;;;;2.91;100.00;100024.22;5015533;28;20021;-74
2024/01/15 10:05:32;;;;;;;74.05;31.73;;;;;;;3.01;100.00;100026.25;5032239;28;20037;-74
2024/01/15 10:07:58;;;;;;;71.28;30.77;;;;;;;3.13;100.00;100026.97;5063580;28;20029;-74
2024/01/15 10:10:23;;;;;;;64.05;29.27;;;;;;;3.23;100.00;100029.00;5048225;28;20029;-74
2024/01/15 10:12:49;;;;;;;62.38;28.48;;;;;;;3.32;100.00;100030.22;5064352;28;20766;-74
2024/01/15 10:15:16;;;;;;;59.88;27.27;;;;;;;3.40;100.00;100027.00;5031657;28;20381;-74
2024/01/15 10:17:41;;;;;;;58.08;26.83;;;;;;;3.51;100.00;100031.50;5063524;28;20112;-74
2024/01/15 10:20:11;;;;;;;63.83;27.17;;;;;;;3.55;100.00;100031.81;5031680;28;20665;-74
2024/01/15 10:22:39;;;;;;;50.35;23.92;;;;;;;3.58;100.00;100029.38;5030066;28;20402;-74
2024/01/15 10:25:05;;;;;;;56.88;24.40;;;;;;;3.64;100.00;100035.72;5033259;28;20022;-74
2024/01/15 10:27:31;;;;;;;58.15;26.65;;;;;;;3.69;100.00;100033.03;5033823;28;20452;-74
2024/01/15 10:30:00;;;;;;;57.17;26.45;;;;;;;3.73;100.00;100036.94;5034164;28;20084;-74
2024/01/15 10:32:25;;;;;;;58.20;26.83;;;;;;;3.79;100.00;100041.38;5016395;28;20030;-74
2024/01/15 10:34:52;;;;;;;54.20;25.27;;;;;;;3.83;100.00;100035.38;5034068;28;20105;-73
2024/01/15 10:37:18;;;;;;;57.60;26.80;;;;;;;3.83;100.00;100049.94;5017683;28;20395;-74
2024/01/15 10:39:44;;;;;;;53.78;24.95;;;;;;;3.88;100.00;100051.91;5035227;28;20029;-74
2024/01/15 10:42:09;;;;;;;56.38;25.50;;;;;;;3.87;100.00;100047.47;5033808;28;20497;-74
2024/01/15 10:44:35;;;;;;;57.97;25.98;;;;;;;3.90;100.00;100055.19;5033997;28;20029;-74
2024/01/15 10:47:00;;;;;;;50.45;24.80;;;;;;;3.96;100.00;100051.44;5017524;28;20057;-74
2024/01/15 10:49:26;;;;;;;52.40;25.27;;;;;;;3.98;100.00;100050.06;5035403;28;20033;-74
2024/01/15 10:51:53;;;;;;;50.75;25.80;;;;;;;4.01;100.00;100070.69;5024379;28;20139;-74
2024/01/15 10:54:19;;;;;;;53.03;24.70;;;;;;;4.02;100.00;100064.94;5021139;28;20038;-74
2024/01/15 10:56:45;;;;;;;45.78;22.65;;;;;;;4.05;100.00;100066.34;5001275;28;20490;-74
2024/01/15 10:59:10;;;;;;;47.92;21.98;;;;;;;4.03;100.00;100057.53;5028446;28;20060;-74
2024/01/15 11:01:36;;;;;;;46.15;22.63;;;;;;;4.06;100.00;100048.75;5019376;28;20033;-74
2024/01/15 11:04:01;;;;;;;44.25;21.33;;;;;;;4.05;100.00;100058.09;5018874;28;20064;-74
2024/01/15 11:06:28;;;;;;;44.15;20.70;;;;;;;4.11;100.00;100054.28;5033674;28;20030;-73
2024/01/15 11:08:54;;;;;;;38.30;20.45;;;;;;;4.18;100.00;100054.06;5033184;28;20037;-74